This is the latest recevied weather packets stored in our database for station/object IT9CYW-12. If no packets are shown the sender has not sent any weather packets the latest 10 day(s).
| Time | Temp. | Humidity | Pressure | Rain* | Wind** | Luminosity | Snow |
|---|---|---|---|---|---|---|---|
| 1777228011 | 14.44° C | 64% | 982 hPa | - | - | 0 W/m² | - |
| 1777226219 | 15° C | 62% | 981.9 hPa | - | - | 1 W/m² | - |
| 1777225318 | 15° C | 60% | 982 hPa | - | - | 7 W/m² | - |
| 1777224418 | 15.56° C | 58% | 981.7 hPa | - | - | 14 W/m² | - |
| 1777223518 | 15.56° C | 57% | 981.9 hPa | - | - | 21 W/m² | - |
| 1777222618 | 16.11° C | 53% | 981.7 hPa | - | - | 26 W/m² | - |
| 1777221718 | 16.11° C | 52% | 981.7 hPa | - | - | 29 W/m² | - |
| 1777220817 | 16.11° C | 51% | 982 hPa | - | - | 32 W/m² | - |
| 1777219917 | 16.67° C | 51% | 982 hPa | - | - | 34 W/m² | - |
| 1777219016 | 16.67° C | 50% | 981.9 hPa | - | - | 37 W/m² | - |
| 1777218115 | 17.78° C | 45% | 981.9 hPa | - | - | 120 W/m² | - |
| 1777217215 | 17.78° C | 47% | 982 hPa | - | - | 158 W/m² | - |
| 1777216314 | 17.78° C | 46% | 982 hPa | - | - | 202 W/m² | - |
| 1777215414 | 18.33° C | 44% | 981.9 hPa | - | - | 246 W/m² | - |
| 1777214514 | 18.33° C | 45% | 981.9 hPa | - | - | 292 W/m² | - |
| 1777213613 | 18.33° C | 42% | 981.9 hPa | - | - | 339 W/m² | - |
| 1777212713 | 18.89° C | 41% | 981.7 hPa | - | - | 386 W/m² | - |
| 1777211813 | 18.89° C | 38% | 981.9 hPa | - | - | 428 W/m² | - |
| 1777210913 | 18.89° C | 36% | 981.9 hPa | - | - | 473 W/m² | - |
| 1777210013 | 18.89° C | 39% | 981.7 hPa | - | - | 513 W/m² | - |
| 1777209112 | 18.89° C | 40% | 982.2 hPa | - | - | 550 W/m² | - |
| 1777208212 | 18.89° C | 35% | 982.4 hPa | - | - | 586 W/m² | - |
| 1777207312 | 19.44° C | 32% | 982.2 hPa | - | - | 617 W/m² | - |
| 1777206411 | 19.44° C | 37% | 982.4 hPa | - | - | 648 W/m² | - |
| 1777205176 | 20° C | 31% | 982.4 hPa | - | - | 685 W/m² | - |
* Rain since midnight (hover to see other rain measurements)
** Current wind speed in m/s (hover to see current wind gust speed)